createdAt,value
2022-09-22T00:01:43.417Z,102390.53
2022-09-22T00:04:13.994Z,102390.44
2022-09-22T00:06:47.289Z,102389.34
2022-09-22T00:09:18.319Z,102390.41
2022-09-22T00:11:49.314Z,102382.25
2022-09-22T00:14:21.149Z,102383.91
2022-09-22T00:16:52.664Z,102381.41
2022-09-22T00:19:24.854Z,102377.28
2022-09-22T00:21:56.068Z,102379.97
2022-09-22T00:24:26.712Z,102377.28
2022-09-22T00:26:57.713Z,102377.94
2022-09-22T00:29:28.687Z,102374.66
2022-09-22T00:32:00.268Z,102381.59
2022-09-22T00:34:31.332Z,102377.41
2022-09-22T00:37:02.002Z,102374.00
2022-09-22T00:39:31.808Z,102367.69
2022-09-22T00:42:00.870Z,102376.75
2022-09-22T00:44:43.640Z,102370.97
2022-09-22T00:47:38.100Z,102372.88
2022-09-22T00:50:15.161Z,102367.38
2022-09-22T00:52:49.610Z,102372.50
2022-09-22T00:55:23.856Z,102370.44
2022-09-22T00:57:54.843Z,102378.81
2022-09-22T01:00:24.405Z,102362.78
2022-09-22T01:02:57.614Z,102370.94
2022-09-22T01:05:29.177Z,102366.34
2022-09-22T01:07:59.717Z,102359.03
2022-09-22T01:10:28.805Z,102364.84
2022-09-22T01:13:05.959Z,102357.81
2022-09-22T01:15:41.705Z,102354.69
2022-09-22T01:18:22.269Z,102354.16
2022-09-22T01:21:20.269Z,102355.06
2022-09-22T01:24:20.442Z,102352.41
2022-09-22T01:27:41.584Z,102357.66
2022-09-22T01:30:22.242Z,102347.31
2022-09-22T01:33:29.303Z,102344.44
2022-09-22T01:36:11.277Z,102341.06
2022-09-22T01:38:49.151Z,102343.72
2022-09-22T01:41:24.120Z,102343.88
2022-09-22T01:43:57.544Z,102343.50
2022-09-22T01:46:32.117Z,102334.88
2022-09-22T01:49:06.349Z,102331.94
2022-09-22T01:51:41.435Z,102330.78
2022-09-22T01:54:15.817Z,102331.81
2022-09-22T01:56:49.381Z,102336.34
2022-09-22T01:59:21.195Z,102332.47
2022-09-22T02:01:57.236Z,102337.50
2022-09-22T02:04:32.493Z,102329.91
2022-09-22T02:07:05.737Z,102326.59
2022-09-22T02:09:36.932Z,102320.28
2022-09-22T02:12:06.577Z,102316.50
2022-09-22T02:14:36.257Z,102321.94
2022-09-22T02:17:06.707Z,102326.59
2022-09-22T02:19:39.845Z,102316.25
2022-09-22T02:22:11.110Z,102323.09
2022-09-22T02:24:42.250Z,102316.31
2022-09-22T02:27:16.129Z,102319.16
2022-09-22T02:29:50.897Z,102315.88
2022-09-22T02:32:22.757Z,102322.22
2022-09-22T02:34:52.146Z,102323.19
2022-09-22T02:37:29.034Z,102321.69
2022-09-22T02:40:08.176Z,102320.94
2022-09-22T02:42:43.360Z,102325.59
2022-09-22T02:45:18.212Z,102320.63
2022-09-22T02:47:53.105Z,102323.13
2022-09-22T02:50:26.431Z,102314.13
2022-09-22T02:52:59.300Z,102324.38
2022-09-22T02:55:28.571Z,102322.06
2022-09-22T02:57:57.520Z,102311.53
2022-09-22T03:00:26.782Z,102314.31
2022-09-22T03:02:57.313Z,102316.31
2022-09-22T03:05:26.698Z,102321.09
2022-09-22T03:07:55.630Z,102319.59
2022-09-22T03:10:24.729Z,102319.59
2022-09-22T03:13:14.889Z,102315.19
2022-09-22T03:15:42.966Z,102316.88
2022-09-22T03:18:13.470Z,102311.97
2022-09-22T03:20:42.853Z,102309.50
2022-09-22T03:23:11.896Z,102303.25
2022-09-22T03:25:41.361Z,102313.16
2022-09-22T03:28:10.413Z,102311.47
2022-09-22T03:30:40.332Z,102308.56
2022-09-22T03:33:09.565Z,102305.38
2022-09-22T03:35:40.211Z,102310.81
2022-09-22T03:38:09.392Z,102306.56
2022-09-22T03:40:38.582Z,102311.28
2022-09-22T03:43:07.547Z,102310.81
2022-09-22T03:45:36.438Z,102294.44
2022-09-22T03:48:05.643Z,102299.94
2022-09-22T03:50:34.519Z,102302.41
2022-09-22T03:53:04.770Z,102296.59
2022-09-22T03:55:34.507Z,102292.78
2022-09-22T03:58:03.780Z,102291.09
2022-09-22T04:00:32.780Z,102295.63
2022-09-22T04:03:01.722Z,102295.13
2022-09-22T04:05:30.870Z,102295.56
2022-09-22T04:08:00.098Z,102293.38
2022-09-22T04:10:30.362Z,102286.06
2022-09-22T04:12:59.357Z,102295.91
2022-09-22T04:15:28.337Z,102293.53
2022-09-22T04:17:57.381Z,102289.97
2022-09-22T04:20:27.563Z,102282.91
2022-09-22T04:22:56.607Z,102286.31
2022-09-22T04:25:25.652Z,102281.16
2022-09-22T04:27:55.934Z,102280.38
2022-09-22T04:30:24.966Z,102280.56
2022-09-22T04:32:54.076Z,102282.41
2022-09-22T04:35:23.020Z,102284.25
2022-09-22T04:37:53.137Z,102284.53
2022-09-22T04:40:22.581Z,102279.34
2022-09-22T04:42:51.936Z,102283.88
2022-09-22T04:45:22.370Z,102286.97
2022-09-22T04:47:52.766Z,102276.84
2022-09-22T04:50:23.455Z,102284.66
2022-09-22T04:52:54.752Z,102278.69
2022-09-22T04:55:26.225Z,102282.00
2022-09-22T04:57:58.185Z,102282.44
2022-09-22T05:00:30.943Z,102285.16
2022-09-22T05:03:02.243Z,102283.56
2022-09-22T05:05:32.299Z,102284.41
2022-09-22T05:08:02.462Z,102280.28
2022-09-22T05:10:37.176Z,102287.91
2022-09-22T05:13:08.417Z,102285.31
2022-09-22T05:15:40.061Z,102281.88
2022-09-22T05:18:10.700Z,102287.56
2022-09-22T05:20:40.788Z,102289.53
2022-09-22T05:23:11.809Z,102286.50
2022-09-22T05:25:41.963Z,102283.06
2022-09-22T05:28:12.615Z,102293.25
2022-09-22T05:30:43.180Z,102288.91
2022-09-22T05:33:12.087Z,102289.28
2022-09-22T05:35:41.198Z,102295.50
2022-09-22T05:38:10.393Z,102291.16
2022-09-22T05:40:41.296Z,102299.84
2022-09-22T05:43:10.506Z,102292.25
2022-09-22T05:45:39.548Z,102291.16
2022-09-22T05:48:09.986Z,102297.09
2022-09-22T05:50:39.150Z,102289.84
2022-09-22T05:53:10.693Z,102292.97
2022-09-22T05:55:41.199Z,102289.34
2022-09-22T05:58:12.747Z,102291.94
2022-09-22T06:00:42.500Z,102297.88
2022-09-22T06:03:12.899Z,102295.97
2022-09-22T06:05:41.895Z,102300.91
2022-09-22T06:08:10.849Z,102299.91
2022-09-22T06:10:40.897Z,102295.75
2022-09-22T06:13:11.759Z,102289.53
2022-09-22T06:15:41.871Z,102296.91
2022-09-22T06:18:15.324Z,102290.41
2022-09-22T06:20:45.476Z,102291.56
2022-09-22T06:23:15.371Z,102286.91
2022-09-22T06:25:44.417Z,102296.00
2022-09-22T06:28:15.591Z,102304.06
2022-09-22T06:30:44.602Z,102300.63
2022-09-22T06:33:14.920Z,102296.22
2022-09-22T06:35:45.386Z,102292.94
2022-09-22T06:38:15.852Z,102294.84
2022-09-22T06:40:45.376Z,102296.91
2022-09-22T06:43:22.832Z,102302.28
2022-09-22T06:45:53.293Z,102299.41
2022-09-22T06:48:24.305Z,102300.13
2022-09-22T06:50:54.393Z,102298.94
2022-09-22T06:53:26.736Z,102303.09
2022-09-22T06:56:03.174Z,102304.66
2022-09-22T06:58:47.021Z,102306.72
2022-09-22T07:01:21.929Z,102303.31
2022-09-22T07:03:52.601Z,102303.13
2022-09-22T07:06:21.601Z,102309.78
2022-09-22T07:08:50.843Z,102306.75
2022-09-22T07:11:23.547Z,102307.38
2022-09-22T07:13:54.060Z,102304.94
2022-09-22T07:16:24.836Z,102312.97
2022-09-22T07:18:58.289Z,102310.34
2022-09-22T07:21:32.762Z,102302.72
2022-09-22T07:24:01.777Z,102305.53
2022-09-22T07:26:32.563Z,102305.88
2022-09-22T07:29:03.220Z,102303.63
2022-09-22T07:31:36.575Z,102304.09
2022-09-22T07:34:07.125Z,102301.63
2022-09-22T07:36:37.932Z,102296.19
2022-09-22T07:39:08.512Z,102299.72
2022-09-22T07:41:41.771Z,102299.66
2022-09-22T07:44:44.740Z,102293.59
2022-09-22T07:47:36.683Z,102292.97
2022-09-22T07:50:07.777Z,102285.38
2022-09-22T07:52:36.706Z,102289.69
2022-09-22T07:55:06.284Z,102291.75
2022-09-22T07:57:36.566Z,102283.13
2022-09-22T08:00:06.238Z,102286.38
2022-09-22T08:02:41.105Z,102287.00
2022-09-22T08:05:11.729Z,102285.63
2022-09-22T08:07:41.708Z,102288.50
2022-09-22T08:10:12.214Z,102289.84
2022-09-22T08:12:42.774Z,102284.16
2022-09-22T08:15:13.044Z,102285.25
2022-09-22T08:17:43.961Z,102283.75
2022-09-22T08:20:14.292Z,102278.03
2022-09-22T08:22:43.402Z,102278.44
2022-09-22T08:25:13.106Z,102282.56
2022-09-22T08:27:42.060Z,102278.78
2022-09-22T08:30:11.947Z,102287.53
2022-09-22T08:32:41.158Z,102277.91
2022-09-22T08:35:11.258Z,102282.59
2022-09-22T08:37:43.767Z,102276.78
2022-09-22T08:40:23.682Z,102279.75
2022-09-22T08:42:54.372Z,102282.16
2022-09-22T08:45:32.358Z,102282.91
2022-09-22T08:48:23.833Z,102277.00
2022-09-22T08:51:14.251Z,102287.75
2022-09-22T08:53:51.513Z,102277.97
2022-09-22T08:56:30.706Z,102281.88
2022-09-22T08:59:09.129Z,102277.66
2022-09-22T09:01:53.794Z,102281.63
2022-09-22T09:04:47.589Z,102285.78
2022-09-22T09:07:27.415Z,102283.13
2022-09-22T09:10:06.863Z,102279.97
2022-09-22T09:12:49.396Z,102275.34
2022-09-22T09:15:41.549Z,102278.75
2022-09-22T09:18:17.414Z,102277.78
2022-09-22T09:20:48.223Z,102279.66
2022-09-22T09:23:19.647Z,102277.28
2022-09-22T09:25:54.311Z,102274.53
2022-09-22T09:28:31.655Z,102280.09
2022-09-22T09:31:10.398Z,102264.22
2022-09-22T09:33:48.214Z,102265.56
2022-09-22T09:36:22.772Z,102269.16
2022-09-22T09:38:55.784Z,102269.38
2022-09-22T09:41:32.395Z,102265.84
2022-09-22T09:44:03.515Z,102253.44
2022-09-22T09:46:48.021Z,102260.16
2022-09-22T09:49:20.090Z,102254.97
2022-09-22T09:51:51.916Z,102251.38
2022-09-22T09:54:21.721Z,102246.09
2022-09-22T09:57:07.718Z,102249.03
2022-09-22T09:59:56.055Z,102240.63
2022-09-22T10:02:28.552Z,102248.16
2022-09-22T10:04:59.874Z,102244.53
2022-09-22T10:10:24.613Z,102239.13
2022-09-22T10:12:56.860Z,102241.13
2022-09-22T10:15:27.547Z,102240.50
2022-09-22T10:17:56.484Z,102243.25
2022-09-22T10:20:28.295Z,102238.94
2022-09-22T10:22:57.952Z,102223.91
2022-09-22T10:25:34.002Z,102222.69
2022-09-22T10:28:06.882Z,102221.66
2022-09-22T10:30:37.648Z,102220.78
2022-09-22T10:33:22.201Z,102218.63
2022-09-22T10:35:56.564Z,102214.25
2022-09-22T10:38:28.973Z,102217.66
2022-09-22T10:41:04.389Z,102209.88
2022-09-22T10:43:42.488Z,102205.19
2022-09-22T10:46:34.703Z,102206.47
2022-09-22T10:49:12.153Z,102203.25
2022-09-22T10:51:55.467Z,102200.97
2022-09-22T10:54:51.439Z,102196.34
2022-09-22T10:57:33.089Z,102193.66
2022-09-22T11:00:12.484Z,102200.81
2022-09-22T11:03:15.454Z,102198.47
2022-09-22T11:06:21.746Z,102197.56
2022-09-22T11:09:16.867Z,102189.47
2022-09-22T11:12:09.116Z,102185.59
2022-09-22T11:14:54.541Z,102190.63
2022-09-22T11:17:38.563Z,102185.91
2022-09-22T11:20:32.243Z,102194.13
2022-09-22T11:23:34.682Z,102194.13
2022-09-22T11:26:21.119Z,102198.31
2022-09-22T11:29:12.795Z,102184.19
2022-09-22T11:31:48.932Z,102179.19
2022-09-22T11:34:47.080Z,102170.53
2022-09-22T11:37:30.002Z,102183.09
2022-09-22T11:40:27.170Z,102182.91
2022-09-22T11:43:05.297Z,102177.03
2022-09-22T11:45:48.104Z,102169.09
2022-09-22T11:48:30.181Z,102163.00
2022-09-22T11:51:27.275Z,102165.03
2022-09-22T11:54:11.517Z,102159.50
2022-09-22T11:56:44.542Z,102153.28
2022-09-22T11:59:26.893Z,102151.88
2022-09-22T12:01:58.969Z,102158.41
2022-09-22T12:04:36.166Z,102159.78
2022-09-22T12:07:10.325Z,102164.25
2022-09-22T12:09:45.433Z,102157.16
2022-09-22T12:12:20.216Z,102156.31
2022-09-22T12:14:57.858Z,102151.22
2022-09-22T12:17:36.705Z,102146.03
2022-09-22T12:20:20.017Z,102142.09
2022-09-22T12:23:12.436Z,102137.34
2022-09-22T12:25:49.250Z,102137.97
2022-09-22T12:28:25.660Z,102145.97
2022-09-22T12:31:06.200Z,102142.06
2022-09-22T12:33:38.067Z,102143.59
2022-09-22T12:36:07.819Z,102139.28
2022-09-22T12:38:38.839Z,102131.03
2022-09-22T12:41:08.513Z,102124.06
2022-09-22T12:43:38.315Z,102128.88
2022-09-22T12:46:22.105Z,102116.31
2022-09-22T12:48:51.568Z,102111.19
2022-09-22T12:51:35.392Z,102105.09
2022-09-22T12:54:47.176Z,102107.19
2022-09-22T12:57:31.073Z,102107.06
2022-09-22T13:00:32.214Z,102102.78
2022-09-22T13:03:24.177Z,102088.31
2022-09-22T13:05:56.444Z,102097.72
2022-09-22T13:08:27.288Z,102092.75
2022-09-22T13:10:59.348Z,102088.38
2022-09-22T13:13:37.567Z,102095.31
2022-09-22T13:16:37.857Z,102100.16
2022-09-22T13:19:11.499Z,102096.84
2022-09-22T13:21:41.978Z,102096.78
2022-09-22T13:24:26.547Z,102089.06
2022-09-22T13:27:05.632Z,102098.28
2022-09-22T13:29:36.380Z,102085.03
2022-09-22T13:32:26.517Z,102084.66
2022-09-22T13:34:55.447Z,102088.28
2022-09-22T13:37:26.218Z,102087.06
2022-09-22T13:39:57.075Z,102079.81
2022-09-22T13:42:31.242Z,102085.28
2022-09-22T13:45:03.835Z,102071.34
2022-09-22T13:47:33.724Z,102073.72
2022-09-22T13:50:05.791Z,102068.53
2022-09-22T13:52:39.318Z,102067.72
2022-09-22T13:55:11.432Z,102069.69
2022-09-22T13:57:41.372Z,102073.28
2022-09-22T14:00:24.331Z,102068.63
2022-09-22T14:02:53.768Z,102053.19
2022-09-22T14:05:25.821Z,102050.00
2022-09-22T14:08:12.078Z,102047.75
2022-09-22T14:10:44.422Z,102046.09
2022-09-22T14:13:38.823Z,102034.00
2022-09-22T14:16:24.626Z,102045.91
2022-09-22T14:18:59.452Z,102045.91
2022-09-22T14:21:28.918Z,102042.44
2022-09-22T14:24:00.069Z,102039.31
2022-09-22T14:26:34.371Z,102036.44
2022-09-22T14:29:18.527Z,102035.16
2022-09-22T14:31:53.111Z,102034.22
2022-09-22T14:34:25.648Z,102031.00
2022-09-22T14:36:56.162Z,102029.22
2022-09-22T14:39:33.936Z,102031.31
2022-09-22T14:42:11.943Z,102031.22
2022-09-22T14:44:46.134Z,102028.59
2022-09-22T14:47:27.245Z,102028.78
2022-09-22T14:50:10.553Z,102028.72
2022-09-22T14:52:43.154Z,102026.03
2022-09-22T14:55:20.339Z,102020.41
2022-09-22T14:57:51.062Z,102013.63
2022-09-22T15:00:40.497Z,102008.69
2022-09-22T15:03:21.228Z,102011.03
2022-09-22T15:05:51.324Z,102001.25
2022-09-22T15:08:27.740Z,102001.19
2022-09-22T15:11:00.239Z,102005.63
2022-09-22T15:13:32.234Z,101998.28
2022-09-22T15:16:01.233Z,101994.97
2022-09-22T15:18:31.227Z,102003.41
2022-09-22T15:21:06.135Z,101995.31
2022-09-22T15:23:40.922Z,102001.19
2022-09-22T15:26:20.683Z,101991.88
2022-09-22T15:28:53.880Z,101990.94
2022-09-22T15:31:26.635Z,101993.09
2022-09-22T15:33:57.022Z,101994.28
2022-09-22T15:36:26.439Z,101999.72
2022-09-22T15:39:00.419Z,101998.22
2022-09-22T15:41:31.683Z,101989.97
2022-09-22T15:44:00.779Z,101994.31
2022-09-22T15:46:35.146Z,101994.13
2022-09-22T15:49:08.945Z,101995.38
2022-09-22T15:51:37.900Z,101993.22
2022-09-22T15:54:13.822Z,101987.66
2022-09-22T15:56:45.069Z,101996.84
2022-09-22T15:59:18.253Z,101989.03
2022-09-22T16:01:47.451Z,101982.75
2022-09-22T16:04:17.232Z,101988.84
2022-09-22T16:06:51.104Z,101978.53
2022-09-22T16:09:20.210Z,101980.34
2022-09-22T16:11:50.556Z,101980.28
2022-09-22T16:14:19.769Z,101980.69
2022-09-22T16:16:49.082Z,101972.56
2022-09-22T16:19:18.061Z,101984.47
2022-09-22T16:21:51.253Z,101980.81
2022-09-22T16:24:22.220Z,101971.41
2022-09-22T16:26:53.513Z,101977.22
2022-09-22T16:29:22.451Z,101972.03
2022-09-22T16:31:51.546Z,101970.34
2022-09-22T16:34:21.173Z,101982.22
2022-09-22T16:36:50.070Z,101975.16
2022-09-22T16:39:19.035Z,101979.81
2022-09-22T16:41:48.361Z,101975.16
2022-09-22T16:44:18.630Z,101977.22
2022-09-22T16:46:47.577Z,101974.16
2022-09-22T16:49:19.917Z,101974.78
2022-09-22T16:51:50.555Z,101966.66
2022-09-22T16:54:20.196Z,101970.97
2022-09-22T16:56:50.860Z,101967.75
2022-09-22T16:59:22.513Z,101972.44
2022-09-22T17:01:51.870Z,101970.41
2022-09-22T17:04:21.568Z,101962.28
2022-09-22T17:06:50.884Z,101960.25
2022-09-22T17:09:20.156Z,101962.06
2022-09-22T17:11:50.000Z,101955.84
2022-09-22T17:14:22.980Z,101951.41
2022-09-22T17:16:53.464Z,101957.91
2022-09-22T17:19:23.864Z,101955.97
2022-09-22T17:21:55.125Z,101947.09
2022-09-22T17:24:25.178Z,101956.03
2022-09-22T17:26:55.800Z,101957.03
2022-09-22T17:29:28.278Z,101951.13
2022-09-22T17:31:59.933Z,101950.41
2022-09-22T17:34:31.449Z,101949.91
2022-09-22T17:37:01.221Z,101949.56
2022-09-22T17:39:31.693Z,101953.38
2022-09-22T17:42:00.783Z,101939.97
2022-09-22T17:44:33.442Z,101946.50
2022-09-22T17:47:20.245Z,101939.00
2022-09-22T17:50:06.782Z,101944.47
2022-09-22T17:52:53.219Z,101942.19
2022-09-22T17:55:25.306Z,101953.41
2022-09-22T17:57:56.306Z,101943.94
2022-09-22T18:00:27.521Z,101947.13
2022-09-22T18:02:56.641Z,101952.13
2022-09-22T18:05:32.124Z,101943.88
2022-09-22T18:08:01.201Z,101944.66
2022-09-22T18:10:33.251Z,101944.38
2022-09-22T18:13:04.278Z,101952.94
2022-09-22T18:15:39.602Z,101954.31
2022-09-22T18:18:08.610Z,101957.28
2022-09-22T18:20:37.573Z,101954.25
2022-09-22T18:23:07.135Z,101953.94
2022-09-22T18:25:36.359Z,101952.06
2022-09-22T18:28:05.586Z,101948.63
2022-09-22T18:30:37.422Z,101952.66
2022-09-22T18:33:06.334Z,101958.22
2022-09-22T18:35:35.317Z,101962.41
2022-09-22T18:38:04.403Z,101954.13
2022-09-22T18:40:33.510Z,101958.63
2022-09-22T18:43:02.675Z,101960.44
2022-09-22T18:45:32.109Z,101952.66
2022-09-22T18:48:02.809Z,101957.50
2022-09-22T18:50:34.518Z,101960.72
2022-09-22T18:53:03.546Z,101962.09
2022-09-22T18:55:32.566Z,101956.00
2022-09-22T18:58:02.110Z,101960.41
2022-09-22T19:00:31.524Z,101963.00
2022-09-22T19:03:01.938Z,101965.84
2022-09-22T19:05:30.931Z,101965.84
2022-09-22T19:08:00.875Z,101963.81
2022-09-22T19:10:29.800Z,101967.78
2022-09-22T19:12:59.327Z,101968.44
2022-09-22T19:15:28.405Z,101967.88
2022-09-22T19:17:57.394Z,101962.50
2022-09-22T19:20:28.375Z,101971.63
2022-09-22T19:22:57.352Z,101966.31
2022-09-22T19:25:26.647Z,101967.53
2022-09-22T19:27:55.960Z,101965.03
2022-09-22T19:30:28.614Z,101964.56
2022-09-22T19:33:00.639Z,101967.78
2022-09-22T19:35:32.138Z,101967.53
2022-09-22T19:38:03.559Z,101969.28
2022-09-22T19:40:33.862Z,101968.78
2022-09-22T19:43:03.120Z,101965.78
2022-09-22T19:45:32.111Z,101961.03
2022-09-22T19:48:04.504Z,101967.44
2022-09-22T19:50:35.311Z,101966.72
2022-09-22T19:53:04.324Z,101964.53
2022-09-22T19:55:33.410Z,101967.63
2022-09-22T19:58:02.345Z,101960.59
2022-09-22T20:00:32.132Z,101965.94
2022-09-22T20:03:01.490Z,101965.50
2022-09-22T20:05:38.711Z,101964.22
2022-09-22T20:08:15.489Z,101958.59
2022-09-22T20:10:45.530Z,101960.56
2022-09-22T20:13:28.914Z,101958.31
2022-09-22T20:15:59.822Z,101961.69
2022-09-22T20:18:29.769Z,101971.88
2022-09-22T20:21:02.590Z,101963.94
2022-09-22T20:23:31.653Z,101960.66
2022-09-22T20:26:01.137Z,101961.59
2022-09-22T20:28:30.419Z,101957.88
2022-09-22T20:30:59.793Z,101953.66
2022-09-22T20:33:29.133Z,101953.75
2022-09-22T20:36:00.959Z,101957.31
2022-09-22T20:38:30.980Z,101955.25
2022-09-22T20:41:02.874Z,101952.91
2022-09-22T20:43:32.167Z,101946.38
2022-09-22T20:46:03.556Z,101950.47
2022-09-22T20:48:33.108Z,101947.59
2022-09-22T20:51:03.719Z,101946.47
2022-09-22T20:53:35.400Z,101947.84
2022-09-22T20:56:07.048Z,101947.28
2022-09-22T20:58:40.387Z,101943.94
2022-09-22T21:01:10.999Z,101947.00
2022-09-22T21:03:40.361Z,101948.91
2022-09-22T21:06:12.637Z,101939.63
2022-09-22T21:09:01.019Z,101947.28
2022-09-22T21:11:31.342Z,101947.19
2022-09-22T21:14:03.908Z,101952.03
2022-09-22T21:16:34.461Z,101939.41
2022-09-22T21:19:04.702Z,101944.63
2022-09-22T21:21:37.646Z,101944.63
2022-09-22T21:24:08.153Z,101939.31
2022-09-22T21:26:37.476Z,101940.31
2022-09-22T21:29:06.722Z,101939.78
2022-09-22T21:31:37.208Z,101939.66
2022-09-22T21:34:06.716Z,101935.47
2022-09-22T21:36:37.478Z,101942.41
2022-09-22T21:39:06.845Z,101935.53
2022-09-22T21:41:36.318Z,101932.78
2022-09-22T21:44:06.166Z,101933.63
2022-09-22T21:46:40.930Z,101930.38
2022-09-22T21:49:11.599Z,101931.47
2022-09-22T21:51:44.341Z,101929.88
2022-09-22T21:54:15.427Z,101922.94
2022-09-22T21:56:44.442Z,101922.22
2022-09-22T21:59:14.257Z,101927.38
2022-09-22T22:01:45.119Z,101917.56
2022-09-22T22:04:15.190Z,101922.13
2022-09-22T22:06:46.693Z,101922.31
2022-09-22T22:09:18.358Z,101918.28
2022-09-22T22:11:50.206Z,101913.69
2022-09-22T22:14:20.907Z,101914.16
2022-09-22T22:16:51.742Z,101908.84
2022-09-22T22:19:22.142Z,101903.63
2022-09-22T22:21:52.872Z,101902.06
2022-09-22T22:24:35.121Z,101904.19
2022-09-22T22:27:06.738Z,101907.56
2022-09-22T22:29:38.451Z,101896.34
2022-09-22T22:32:09.003Z,101895.69
2022-09-22T22:34:38.540Z,101899.91
2022-09-22T22:37:10.594Z,101895.31
2022-09-22T22:39:39.517Z,101894.13
2022-09-22T22:42:08.754Z,101888.66
2022-09-22T22:44:37.648Z,101890.91
2022-09-22T22:47:08.441Z,101890.75
2022-09-22T22:49:37.429Z,101885.78
2022-09-22T22:52:07.804Z,101881.09
2022-09-22T22:54:36.711Z,101893.75
2022-09-22T22:57:05.776Z,101885.41
2022-09-22T22:59:34.737Z,101881.19
2022-09-22T23:02:03.681Z,101881.94
2022-09-22T23:04:32.986Z,101884.09
2022-09-22T23:07:01.950Z,101875.22
2022-09-22T23:09:32.186Z,101879.44
2022-09-22T23:12:01.284Z,101875.50
2022-09-22T23:14:30.164Z,101873.56
2022-09-22T23:16:59.156Z,101870.44
2022-09-22T23:19:28.213Z,101870.75
2022-09-22T23:21:58.994Z,101862.44
2022-09-22T23:24:27.921Z,101869.97
2022-09-22T23:26:58.460Z,101862.63
2022-09-22T23:29:27.472Z,101869.06
2022-09-22T23:31:56.411Z,101859.75
2022-09-22T23:34:25.364Z,101858.50
2022-09-22T23:36:54.317Z,101856.44
2022-09-22T23:39:23.473Z,101853.81
2022-09-22T23:41:52.498Z,101851.59
2022-09-22T23:44:22.779Z,101848.97
2022-09-22T23:46:51.786Z,101848.41
2022-09-22T23:49:20.875Z,101847.00
2022-09-22T23:51:49.894Z,101836.56
2022-09-22T23:54:18.798Z,101831.41
2022-09-22T23:56:47.759Z,101844.03
2022-09-22T23:59:16.682Z,101831.78
